Time;durP1;ratioP1;P1;durP2;ratioP2;P2;SDS_P1;SDS_P2;PMS_P1;PMS_P2;Temp;Humidity;BMP_temperature;BMP_pressure;BME280_temperature;BME280_humidity;BME280_pressure;Samples;Min_cycle;Max_cycle;Signal;HPM_P1;HPM_P2
2023/05/27 00:01:17;;;;;;;16.40;4.90;;;;;;;10.45;77.84;102846.97;5033445;28;20022;-69
2023/05/27 00:03:42;;;;;;;17.40;4.80;;;;;;;10.41;78.26;102842.59;5035791;28;20033;-69
2023/05/27 00:06:08;;;;;;;15.73;4.40;;;;;;;10.32;77.59;102843.38;5034654;28;20531;-70
2023/05/27 00:08:33;;;;;;;15.93;4.95;;;;;;;10.35;78.47;102848.59;5035649;28;20115;-69
2023/05/27 00:10:58;;;;;;;16.88;4.30;;;;;;;10.31;77.79;102849.44;5035213;28;20111;-69
2023/05/27 00:13:23;;;;;;;16.13;4.53;;;;;;;10.25;78.15;102847.63;5034671;28;20037;-69
2023/05/27 00:15:49;;;;;;;16.73;4.50;;;;;;;10.18;78.33;102845.81;5035345;28;20041;-70
2023/05/27 00:18:15;;;;;;;21.27;4.95;;;;;;;10.15;79.04;102855.34;5035444;28;20030;-69
2023/05/27 00:20:41;;;;;;;16.85;4.55;;;;;;;10.08;78.91;102842.25;5034488;28;20469;-69
2023/05/27 00:23:06;;;;;;;19.02;4.38;;;;;;;9.95;79.64;102827.34;5035672;28;20025;-69
2023/05/27 00:25:31;;;;;;;11.68;3.90;;;;;;;10.03;79.52;102851.72;5035366;28;20571;-69
2023/05/27 00:27:57;;;;;;;17.42;4.50;;;;;;;10.00;79.91;102841.25;5034176;28;20039;-69
2023/05/27 00:30:22;;;;;;;14.38;4.55;;;;;;;10.02;79.58;102843.91;5035209;28;20041;-69
2023/05/27 00:32:47;;;;;;;17.88;4.45;;;;;;;9.92;79.76;102835.13;5035057;28;20450;-69
2023/05/27 00:35:13;;;;;;;20.80;4.43;;;;;;;9.94;80.82;102838.63;5034453;28;20026;-69
2023/05/27 00:37:38;;;;;;;13.07;4.63;;;;;;;9.95;79.77;102842.09;5034873;28;20040;-70
2023/05/27 00:40:05;;;;;;;19.63;4.75;;;;;;;9.92;80.06;102836.84;5035212;28;20476;-69
2023/05/27 00:42:30;;;;;;;14.07;4.13;;;;;;;9.89;80.28;102831.59;5034021;28;20029;-69
2023/05/27 00:44:55;;;;;;;13.18;4.15;;;;;;;9.91;80.18;102833.38;5034620;28;20389;-69
2023/05/27 00:47:23;;;;;;;11.55;4.82;;;;;;;9.84;80.28;102834.13;5034567;28;20049;-69
2023/05/27 00:49:49;;;;;;;14.07;4.55;;;;;;;9.76;80.13;102841.00;5034196;28;20036;-69
2023/05/27 00:52:14;;;;;;;11.40;4.85;;;;;;;9.66;81.06;102841.75;5034887;28;20021;-69
2023/05/27 00:54:41;;;;;;;16.20;4.38;;;;;;;9.56;81.11;102828.63;5033810;28;20040;-70
2023/05/27 00:57:06;;;;;;;13.75;4.20;;;;;;;9.56;81.82;102839.03;5034684;28;20020;-69
2023/05/27 00:59:31;;;;;;;10.90;4.40;;;;;;;9.56;82.59;102835.56;5034786;28;20025;-69
2023/05/27 01:01:57;;;;;;;13.80;4.15;;;;;;;9.51;82.76;102838.09;5033637;28;20077;-69
2023/05/27 01:04:24;;;;;;;11.13;4.05;;;;;;;9.48;83.06;102834.56;5034495;28;20022;-69
2023/05/27 01:07:14;;;;;;;14.40;5.10;;;;;;;9.43;82.51;102829.31;5034435;28;20056;-69
2023/05/27 01:09:39;;;;;;;14.57;5.10;;;;;;;9.38;83.26;102833.56;5032155;28;20124;-69
2023/05/27 01:12:15;;;;;;;13.47;4.23;;;;;;;9.32;83.39;102817.91;5034142;28;20120;-69
2023/05/27 01:14:43;;;;;;;15.50;4.65;;;;;;;9.29;84.28;102823.06;5034292;28;20334;-69
2023/05/27 01:17:11;;;;;;;12.07;4.43;;;;;;;9.22;83.93;102821.19;5033676;28;20025;-69
2023/05/27 01:19:44;;;;;;;13.85;4.30;;;;;;;9.20;84.92;102816.00;5034285;28;20025;-69
2023/05/27 01:22:12;;;;;;;16.30;4.97;;;;;;;9.20;84.78;102816.00;5034016;28;20485;-69
2023/05/27 01:24:37;;;;;;;15.10;4.78;;;;;;;9.16;84.82;102819.41;5033433;28;20083;-69
2023/05/27 01:27:03;;;;;;;13.00;4.95;;;;;;;9.13;84.68;102812.44;5034022;28;20029;-69
2023/05/27 01:29:30;;;;;;;15.38;5.25;;;;;;;9.12;85.66;102813.28;5034357;28;20033;-69
2023/05/27 01:32:14;;;;;;;11.85;4.53;;;;;;;9.13;85.51;102812.44;5033234;28;20057;-69
2023/05/27 01:35:06;;;;;;;13.43;4.85;;;;;;;9.08;86.07;102816.69;5033651;28;20041;-69
2023/05/27 01:37:36;;;;;;;13.85;4.53;;;;;;;9.00;86.76;102812.25;5033277;28;20022;-69
2023/05/27 01:40:05;;;;;;;13.07;4.53;;;;;;;8.94;87.02;102804.34;5033923;28;20018;-69
2023/05/27 01:42:33;;;;;;;11.85;4.90;;;;;;;8.87;86.71;102812.06;5033990;28;20373;-69
2023/05/27 01:45:00;;;;;;;17.70;4.57;;;;;;;8.82;87.14;102805.91;5032676;28;20388;-69
2023/05/27 01:47:26;;;;;;;12.48;4.28;;;;;;;8.77;87.43;102804.97;5033670;28;20128;-69
2023/05/27 01:49:52;;;;;;;11.95;4.50;;;;;;;8.75;87.95;102808.38;5033411;28;20500;-69
2023/05/27 01:52:17;;;;;;;19.70;5.22;;;;;;;8.65;88.33;102803.03;5033078;28;20022;-69
2023/05/27 01:54:42;;;;;;;14.48;4.05;;;;;;;8.74;88.35;102809.25;5033330;28;20087;-69
2023/05/27 01:57:08;;;;;;;16.80;5.22;;;;;;;8.65;89.07;102796.97;5033687;28;20033;-69
2023/05/27 01:59:33;;;;;;;16.05;5.57;;;;;;;8.69;89.45;102803.97;5032721;28;20028;-69
2023/05/27 02:01:58;;;;;;;13.32;4.93;;;;;;;8.66;88.86;102802.22;5033030;28;20034;-69
2023/05/27 02:04:24;;;;;;;15.85;4.82;;;;;;;8.66;89.46;102798.72;5033701;28;20033;-69
2023/05/27 02:06:49;;;;;;;15.27;5.18;;;;;;;8.48;89.78;102782.84;5032421;28;20041;-69
2023/05/27 02:09:15;;;;;;;13.77;4.78;;;;;;;8.58;90.15;102790.81;5028689;28;20030;-69
2023/05/27 02:11:40;;;;;;;13.00;4.68;;;;;;;8.56;89.75;102796.81;5033323;28;20068;-69
2023/05/27 02:14:06;;;;;;;15.50;5.07;;;;;;;8.55;89.48;102803.75;5032476;28;20030;-69
2023/05/27 02:16:33;;;;;;;19.55;5.40;;;;;;;8.47;90.50;102794.06;5033097;28;20028;-69
2023/05/27 02:19:00;;;;;;;14.48;4.80;;;;;;;8.46;90.38;102806.19;5030329;28;20025;-69
2023/05/27 02:21:26;;;;;;;16.98;4.80;;;;;;;8.44;90.91;102802.72;5033272;28;20037;-69
2023/05/27 02:23:51;;;;;;;14.68;5.35;;;;;;;8.44;91.07;102811.38;5031826;28;20503;-69
2023/05/27 02:26:17;;;;;;;12.57;4.32;;;;;;;8.41;92.15;102803.53;5032265;28;20060;-69
2023/05/27 02:28:42;;;;;;;14.93;5.38;;;;;;;8.43;92.08;102816.53;5032815;28;20021;-70
2023/05/27 02:31:08;;;;;;;14.05;5.00;;;;;;;8.36;91.87;102805.13;5032923;28;20059;-69
2023/05/27 02:33:34;;;;;;;16.27;5.10;;;;;;;8.34;92.22;102804.25;5032225;28;20034;-69
2023/05/27 02:35:59;;;;;;;18.33;5.38;;;;;;;8.33;92.73;102804.19;5032875;28;20026;-69
2023/05/27 02:38:25;;;;;;;16.13;5.47;;;;;;;8.25;92.22;102804.06;5032693;28;20026;-69
2023/05/27 02:40:50;;;;;;;20.92;5.10;;;;;;;8.29;92.89;102812.81;5031977;28;20030;-69
2023/05/27 02:43:16;;;;;;;16.42;5.25;;;;;;;8.21;92.87;102804.88;5032857;28;20080;-69
2023/05/27 02:45:42;;;;;;;13.95;5.05;;;;;;;8.15;94.15;102813.44;5032217;28;20486;-69
2023/05/27 02:48:07;;;;;;;13.63;4.60;;;;;;;8.02;94.08;102808.88;5029754;28;20052;-69
2023/05/27 02:50:33;;;;;;;18.73;5.70;;;;;;;8.07;93.71;102816.72;5032417;28;20044;-69
2023/05/27 02:52:58;;;;;;;17.73;5.30;;;;;;;8.06;94.74;102812.38;5032560;28;20053;-69
2023/05/27 02:55:24;;;;;;;13.43;5.50;;;;;;;7.97;94.33;102810.47;5031662;28;20026;-69
2023/05/27 02:57:50;;;;;;;16.67;5.50;;;;;;;7.93;95.21;102819.06;5032116;28;20072;-69
2023/05/27 03:00:15;;;;;;;18.98;5.45;;;;;;;7.83;96.23;102815.44;5032392;28;20029;-69
2023/05/27 03:02:41;;;;;;;16.48;5.65;;;;;;;7.86;96.05;102827.59;5031342;28;20056;-69
2023/05/27 03:05:07;;;;;;;20.17;5.65;;;;;;;7.79;96.79;102820.53;5032482;28;20458;-69
2023/05/27 03:07:32;;;;;;;15.57;5.60;;;;;;;7.78;96.69;102823.97;5032268;28;20568;-69
2023/05/27 03:09:58;;;;;;;14.35;5.28;;;;;;;7.76;97.08;102828.28;5031491;28;20104;-69
2023/05/27 03:12:23;;;;;;;15.48;5.05;;;;;;;7.64;97.15;102816.78;5032269;28;20027;-69
2023/05/27 03:14:49;;;;;;;18.23;5.45;;;;;;;7.70;97.28;102818.63;5032254;28;20037;-69
2023/05/27 03:17:15;;;;;;;17.30;5.32;;;;;;;7.64;97.81;102810.72;5031392;28;20057;-69
2023/05/27 03:19:41;;;;;;;12.18;5.47;;;;;;;7.65;97.65;102822.84;5032011;28;20063;-69
2023/05/27 03:22:07;;;;;;;18.15;5.70;;;;;;;7.71;98.00;102821.25;5032063;28;20033;-69
2023/05/27 03:24:33;;;;;;;18.88;5.38;;;;;;;7.62;98.56;102817.59;5031704;28;20029;-69
2023/05/27 03:26:58;;;;;;;14.02;5.85;;;;;;;7.53;98.17;102815.69;5031841;28;20075;-69
2023/05/27 03:29:24;;;;;;;17.30;6.07;;;;;;;7.59;99.25;102817.56;5031280;28;20076;-69
2023/05/27 03:31:49;;;;;;;12.40;5.10;;;;;;;7.63;98.80;102814.16;5032186;28;20116;-69
2023/05/27 03:34:14;;;;;;;18.38;5.93;;;;;;;7.67;99.12;102808.19;5032115;28;20033;-69
2023/05/27 03:36:42;;;;;;;19.15;5.85;;;;;;;7.68;98.30;102807.31;5035169;28;20044;-70
2023/05/27 03:39:08;;;;;;;13.48;5.90;;;;;;;7.59;99.28;102791.59;5036223;28;20025;-69
2023/05/27 03:41:34;;;;;;;16.42;5.75;;;;;;;7.64;99.46;102801.19;5035786;28;20159;-69
2023/05/27 03:43:59;;;;;;;15.57;5.32;;;;;;;7.55;99.94;102802.72;5035013;28;20517;-69
2023/05/27 03:46:25;;;;;;;16.48;5.28;;;;;;;7.53;100.00;102799.25;5036266;28;20030;-69
2023/05/27 03:48:50;;;;;;;20.20;6.40;;;;;;;7.47;100.00;102776.63;5035535;28;20045;-69
2023/05/27 03:51:15;;;;;;;22.10;5.65;;;;;;;7.55;100.00;102790.63;5035529;28;20130;-69
2023/05/27 03:53:41;;;;;;;20.17;6.18;;;;;;;7.58;100.00;102790.69;5035483;28;20104;-69
2023/05/27 03:56:06;;;;;;;20.42;6.20;;;;;;;7.57;100.00;102794.13;5036177;28;20034;-69
2023/05/27 03:58:31;;;;;;;14.35;5.93;;;;;;;7.47;100.00;102787.88;5034959;28;20358;-69
2023/05/27 04:00:57;;;;;;;19.42;6.15;;;;;;;7.49;100.00;102795.72;5035605;28;20069;-69
2023/05/27 04:03:22;;;;;;;20.20;7.22;;;;;;;7.47;100.00;102790.47;5035902;28;20449;-69
2023/05/27 04:05:47;;;;;;;14.93;5.88;;;;;;;7.43;100.00;102786.09;5034958;28;20033;-69
2023/05/27 04:08:13;;;;;;;18.83;6.75;;;;;;;7.47;100.00;102781.81;5035692;28;20441;-69
2023/05/27 04:10:39;;;;;;;21.17;6.05;;;;;;;7.57;100.00;102788.06;5035458;28;20029;-70
2023/05/27 04:13:04;;;;;;;19.30;6.28;;;;;;;7.53;100.00;102784.56;5034923;28;20071;-69
2023/05/27 04:15:30;;;;;;;19.67;6.10;;;;;;;7.53;100.00;102781.94;5035743;28;20033;-69
2023/05/27 04:17:55;;;;;;;18.00;6.40;;;;;;;7.56;100.00;102776.81;5035225;28;20113;-69
2023/05/27 04:20:21;;;;;;;22.50;7.38;;;;;;;7.59;100.00;102782.06;5034336;28;20021;-69
2023/05/27 04:22:47;;;;;;;16.48;6.22;;;;;;;7.61;100.00;102785.56;5035182;28;20030;-69
2023/05/27 04:25:12;;;;;;;21.00;6.88;;;;;;;7.65;100.00;102787.41;5035204;28;20075;-69
2023/05/27 04:27:37;;;;;;;19.85;6.57;;;;;;;7.62;100.00;102784.75;5033946;28;20025;-69
2023/05/27 04:30:07;;;;;;;20.80;7.00;;;;;;;7.62;100.00;102789.94;5035582;28;20457;-69
2023/05/27 04:32:37;;;;;;;16.92;6.82;;;;;;;7.62;100.00;102778.66;5034240;28;20029;-69
2023/05/27 04:35:09;;;;;;;18.77;6.75;;;;;;;7.65;100.00;102776.09;5035059;28;20031;-69
2023/05/27 04:37:36;;;;;;;15.63;6.47;;;;;;;7.65;100.00;102776.09;5035248;28;20455;-69
2023/05/27 04:40:03;;;;;;;18.40;6.88;;;;;;;7.69;100.00;102767.56;5034223;28;20029;-69
2023/05/27 04:42:29;;;;;;;20.98;6.28;;;;;;;7.68;100.00;102758.00;5035103;28;20025;-69
2023/05/27 04:44:54;;;;;;;18.00;6.20;;;;;;;7.83;100.00;102775.59;5034974;28;20029;-69
2023/05/27 04:47:20;;;;;;;18.73;6.10;;;;;;;7.85;100.00;102764.41;5033364;28;20137;-69
2023/05/27 04:49:46;;;;;;;18.63;7.00;;;;;;;7.94;100.00;102766.28;5034788;28;20029;-69
2023/05/27 04:52:12;;;;;;;16.23;6.68;;;;;;;7.91;100.00;102758.44;5034805;28;20394;-69
2023/05/27 04:54:37;;;;;;;23.88;6.65;;;;;;;7.97;100.00;102762.00;5034006;28;20058;-69
2023/05/27 04:57:02;;;;;;;12.07;6.28;;;;;;;8.01;100.00;102760.38;5034922;28;20100;-69
2023/05/27 04:59:58;;;;;;;18.15;6.43;;;;;;;8.03;100.00;102761.25;5035012;28;20419;-69
2023/05/27 05:02:27;;;;;;;19.27;6.88;;;;;;;8.08;100.00;102756.16;5028233;28;20033;-69
2023/05/27 05:04:52;;;;;;;17.75;6.45;;;;;;;8.09;100.00;102753.56;5034299;28;20025;-69
2023/05/27 05:07:19;;;;;;;19.17;7.28;;;;;;;8.20;100.00;102754.63;5034600;28;20025;-69
2023/05/27 05:09:44;;;;;;;21.90;6.60;;;;;;;8.23;100.00;102759.00;5033879;28;20029;-69
2023/05/27 05:12:10;;;;;;;20.52;6.82;;;;;;;8.31;100.00;102752.22;5034257;28;20033;-69
2023/05/27 05:14:35;;;;;;;19.65;6.43;;;;;;;8.36;100.00;102757.47;5034479;28;20022;-69
2023/05/27 05:17:00;;;;;;;17.70;6.40;;;;;;;8.42;100.00;102762.81;5033117;28;20037;-69
2023/05/27 05:19:26;;;;;;;23.33;6.80;;;;;;;8.51;100.00;102756.91;5034319;28;20045;-69
2023/05/27 05:21:51;;;;;;;17.98;7.10;;;;;;;8.57;100.00;102760.47;5033153;28;20396;-69
2023/05/27 05:24:16;;;;;;;17.95;6.05;;;;;;;8.62;99.69;102761.38;5034249;28;20033;-69
2023/05/27 05:26:43;;;;;;;18.83;6.75;;;;;;;8.66;99.98;102759.72;5033989;28;20047;-69
2023/05/27 05:29:09;;;;;;;23.90;7.68;;;;;;;8.73;98.98;102752.88;5033657;28;20029;-69
2023/05/27 05:31:34;;;;;;;14.80;6.57;;;;;;;8.72;98.82;102752.00;5034078;28;20043;-69
2023/05/27 05:34:00;;;;;;;18.80;6.82;;;;;;;8.75;99.44;102752.03;5034116;28;20487;-69
2023/05/27 05:36:25;;;;;;;19.05;6.72;;;;;;;8.82;98.76;102745.22;5032916;28;20469;-69
2023/05/27 05:38:50;;;;;;;18.70;6.55;;;;;;;8.89;98.83;102745.34;5034029;28;20025;-69
2023/05/27 05:41:16;;;;;;;18.88;7.30;;;;;;;8.98;97.58;102746.31;5033736;28;20029;-69
2023/05/27 05:43:41;;;;;;;20.10;6.47;;;;;;;9.04;97.49;102742.06;5032891;28;20033;-69
2023/05/27 05:46:07;;;;;;;19.23;7.10;;;;;;;9.06;97.57;102737.75;5033981;28;20421;-69
2023/05/27 05:48:32;;;;;;;19.90;6.35;;;;;;;9.07;96.85;102742.09;5033503;28;20033;-69
2023/05/27 05:50:57;;;;;;;25.20;8.05;;;;;;;9.20;97.67;102739.66;5032999;28;20029;-69
2023/05/27 05:53:23;;;;;;;17.02;6.53;;;;;;;9.29;97.56;102744.97;5033733;28;20053;-69
2023/05/27 05:55:48;;;;;;;19.20;7.03;;;;;;;9.36;97.37;102739.00;5033455;28;20030;-69
2023/05/27 05:58:13;;;;;;;19.08;7.03;;;;;;;9.41;97.13;102728.63;5032741;28;20032;-69
2023/05/27 06:00:39;;;;;;;22.27;7.68;;;;;;;9.54;96.37;102735.72;5033294;28;20102;-69
2023/05/27 06:03:04;;;;;;;21.23;6.82;;;;;;;9.60;96.37;102728.84;5033535;28;20021;-69
2023/05/27 06:05:29;;;;;;;16.25;6.43;;;;;;;9.68;96.56;102723.72;5032828;28;20032;-69
2023/05/27 06:07:55;;;;;;;20.63;6.50;;;;;;;9.76;95.10;102714.25;5033054;28;20029;-69
2023/05/27 06:10:20;;;;;;;18.40;6.70;;;;;;;9.83;94.61;102725.59;5033469;28;20080;-69
2023/05/27 06:12:45;;;;;;;20.98;7.20;;;;;;;9.87;95.02;102716.94;5032425;28;20108;-69
2023/05/27 06:15:12;;;;;;;19.90;6.72;;;;;;;9.95;93.35;102722.25;5033542;28;20470;-69
2023/05/27 06:17:37;;;;;;;16.70;6.68;;;;;;;9.99;93.33;102724.00;5033026;28;20049;-69
2023/05/27 06:20:03;;;;;;;17.58;8.00;;;;;;;10.09;93.61;102716.28;5032908;28;20025;-69
2023/05/27 06:22:28;;;;;;;18.98;7.75;;;;;;;10.17;93.48;102710.25;5033321;28;20052;-69
2023/05/27 06:24:53;;;;;;;17.63;7.00;;;;;;;10.23;93.70;102702.47;5033186;28;20105;-70
2023/05/27 06:27:19;;;;;;;19.48;6.95;;;;;;;10.30;93.00;102710.41;5032457;28;20453;-69
2023/05/27 06:29:45;;;;;;;19.80;6.78;;;;;;;10.39;92.49;102712.19;5032721;28;20034;-69
2023/05/27 06:32:11;;;;;;;24.15;7.50;;;;;;;10.47;91.99;102707.91;5032267;28;20033;-69
2023/05/27 06:34:36;;;;;;;19.98;7.22;;;;;;;10.54;91.63;102709.69;5028476;28;20032;-70
2023/05/27 06:37:01;;;;;;;22.40;6.80;;;;;;;10.60;91.96;102715.81;5032900;28;20056;-69
2023/05/27 06:39:27;;;;;;;26.80;7.68;;;;;;;10.67;91.29;102715.88;5032239;28;20036;-69
2023/05/27 06:41:52;;;;;;;26.48;7.70;;;;;;;10.77;90.30;102715.06;5032298;28;20470;-69
2023/05/27 06:44:17;;;;;;;24.48;7.28;;;;;;;10.84;90.78;102708.13;5032839;28;20033;-69
2023/05/27 06:46:43;;;;;;;25.50;7.03;;;;;;;10.90;89.14;102699.47;5031552;28;20048;-69
2023/05/27 06:49:08;;;;;;;23.17;7.30;;;;;;;11.01;89.65;102696.03;5032527;28;20556;-69
2023/05/27 06:51:34;;;;;;;20.63;7.28;;;;;;;11.06;88.13;102696.06;5032574;28;20064;-69
2023/05/27 06:53:59;;;;;;;18.02;6.65;;;;;;;11.14;87.62;102696.06;5031832;28;20136;-70
2023/05/27 06:56:25;;;;;;;20.10;6.57;;;;;;;11.09;87.38;102679.53;5032680;28;20026;-69
2023/05/27 06:58:51;;;;;;;17.85;7.10;;;;;;;11.23;87.53;102696.13;5032273;28;20037;-69
2023/05/27 07:01:16;;;;;;;22.33;7.72;;;;;;;11.34;88.76;102702.22;5031784;28;20048;-69
2023/05/27 07:03:42;;;;;;;21.63;8.13;;;;;;;11.35;86.52;102695.28;5032249;28;20393;-69
2023/05/27 07:06:07;;;;;;;19.55;6.80;;;;;;;11.44;87.44;102688.34;5032637;28;20388;-69
2023/05/27 07:08:32;;;;;;;20.27;7.00;;;;;;;11.56;86.90;102689.25;5031487;28;20378;-70
2023/05/27 07:10:58;;;;;;;27.50;7.68;;;;;;;11.64;87.62;102692.72;5031810;28;20053;-70
2023/05/27 07:13:23;;;;;;;20.02;7.40;;;;;;;11.71;86.86;102691.88;5032669;28;20030;-70
2023/05/27 07:15:48;;;;;;;17.52;7.57;;;;;;;11.77;86.58;102689.28;5031282;28;20084;-70
2023/05/27 07:18:14;;;;;;;18.83;7.78;;;;;;;11.83;85.78;102693.63;5031933;28;20116;-70
2023/05/27 07:20:39;;;;;;;19.13;7.80;;;;;;;11.85;85.08;102673.63;5031511;28;20033;-69
2023/05/27 07:23:05;;;;;;;21.00;8.00;;;;;;;12.00;83.83;102702.41;5031623;28;20026;-70
2023/05/27 07:25:30;;;;;;;19.10;7.50;;;;;;;12.05;84.71;102700.63;5032005;28;20476;-69
2023/05/27 07:27:56;;;;;;;22.90;7.47;;;;;;;12.12;83.73;102705.00;5031828;28;20041;-69
2023/05/27 07:30:21;;;;;;;24.75;7.32;;;;;;;12.17;82.77;102691.94;5031219;28;20057;-69
2023/05/27 07:32:46;;;;;;;17.98;7.32;;;;;;;12.20;82.91;102678.88;5031763;28;20109;-70
2023/05/27 07:35:12;;;;;;;21.92;7.57;;;;;;;12.35;83.38;102684.06;5032038;28;20067;-69
2023/05/27 07:37:37;;;;;;;25.92;7.60;;;;;;;12.51;84.03;102684.03;5031267;28;20033;-69
2023/05/27 07:40:03;;;;;;;19.58;8.15;;;;;;;12.59;82.80;102675.31;5031882;28;20477;-69
2023/05/27 07:42:29;;;;;;;21.23;7.70;;;;;;;12.72;81.56;102670.91;5031375;28;20034;-69
2023/05/27 07:44:55;;;;;;;23.60;8.13;;;;;;;12.84;81.91;102672.59;5031899;28;20036;-69
2023/05/27 07:47:20;;;;;;;17.90;7.40;;;;;;;12.93;80.09;102671.69;5032087;28;20041;-69
2023/05/27 07:49:45;;;;;;;20.83;7.47;;;;;;;12.92;79.65;102664.72;5030941;28;20420;-69
2023/05/27 07:52:11;;;;;;;18.60;7.80;;;;;;;13.02;79.65;102667.28;5032192;28;20366;-69
2023/05/27 07:54:36;;;;;;;20.40;7.38;;;;;;;13.09;79.83;102666.38;5032139;28;20037;-69
2023/05/27 07:57:02;;;;;;;23.92;8.27;;;;;;;13.15;78.62;102656.75;5030992;28;20563;-70
2023/05/27 07:59:27;;;;;;;22.25;7.88;;;;;;;13.19;78.30;102655.88;5032227;28;20029;-69
2023/05/27 08:01:52;;;;;;;17.50;7.65;;;;;;;13.24;77.90;102654.06;5031524;28;20127;-69
2023/05/27 08:04:17;;;;;;;20.83;7.70;;;;;;;13.34;77.68;102654.06;5031320;28;20026;-69
2023/05/27 08:06:43;;;;;;;17.80;7.30;;;;;;;13.43;77.25;102660.09;5031481;28;20123;-69
2023/05/27 08:09:08;;;;;;;20.30;7.82;;;;;;;13.52;76.41;102646.94;5031490;28;20028;-69
2023/05/27 08:11:33;;;;;;;16.73;7.53;;;;;;;13.58;76.10;102644.28;5031259;28;20035;-69
2023/05/27 08:13:59;;;;;;;22.27;8.35;;;;;;;13.63;76.03;102639.88;5031370;28;20084;-70
2023/05/27 08:16:24;;;;;;;17.83;7.82;;;;;;;13.74;75.87;102632.81;5031609;28;20488;-69
2023/05/27 08:18:50;;;;;;;16.48;7.68;;;;;;;13.86;77.10;102629.19;5030059;28;20028;-69
2023/05/27 08:21:16;;;;;;;21.67;7.82;;;;;;;13.98;74.38;102622.97;5031769;28;20032;-70
2023/05/27 08:23:41;;;;;;;22.55;8.43;;;;;;;14.16;74.02;102624.53;5035410;28;20029;-70
2023/05/27 08:26:07;;;;;;;17.85;7.15;;;;;;;14.24;73.81;102628.84;5034636;28;20099;-70
2023/05/27 08:28:36;;;;;;;18.70;8.80;;;;;;;14.32;72.53;102623.50;5035274;28;20033;-69
2023/05/27 08:31:02;;;;;;;22.05;8.10;;;;;;;14.45;71.30;102614.63;5035193;28;20025;-70
2023/05/27 08:33:27;;;;;;;20.08;7.85;;;;;;;14.50;71.11;102609.31;5034635;28;20021;-70
2023/05/27 08:35:53;;;;;;;16.98;7.57;;;;;;;14.58;71.15;102602.25;5034838;28;20025;-69
2023/05/27 08:38:18;;;;;;;19.42;8.30;;;;;;;14.73;70.45;102607.31;5035008;28;20029;-69
2023/05/27 08:40:43;;;;;;;20.90;7.90;;;;;;;14.84;69.40;102594.03;5033946;28;20037;-70
2023/05/27 08:43:09;;;;;;;20.13;7.72;;;;;;;15.00;69.51;102594.69;5034958;28;20029;-69
2023/05/27 08:45:35;;;;;;;16.08;7.55;;;;;;;15.13;68.92;102601.50;5035182;28;20029;-69
2023/05/27 08:48:01;;;;;;;18.85;7.25;;;;;;;15.26;68.12;102588.19;5033861;28;20497;-69
2023/05/27 08:50:26;;;;;;;16.65;7.28;;;;;;;15.40;67.58;102587.13;5031655;28;20051;-69
2023/05/27 08:52:55;;;;;;;24.80;8.25;;;;;;;15.48;66.51;102578.22;5033742;28;20029;-69
2023/05/27 08:55:22;;;;;;;19.17;7.07;;;;;;;15.59;66.43;102587.66;5034824;28;20041;-69
2023/05/27 08:57:51;;;;;;;17.20;7.57;;;;;;;15.70;66.23;102582.28;5034637;28;20052;-70
2023/05/27 09:00:17;;;;;;;21.67;7.25;;;;;;;15.86;65.81;102585.50;5033903;28;20028;-69
2023/05/27 09:02:43;;;;;;;17.40;7.85;;;;;;;15.95;64.28;102581.81;5034257;28;20500;-70
2023/05/27 09:05:10;;;;;;;17.70;7.65;;;;;;;16.03;65.16;102580.78;5034767;28;20025;-70
2023/05/27 09:07:36;;;;;;;25.77;8.35;;;;;;;16.04;63.05;102572.00;5034092;28;20047;-69
2023/05/27 09:10:01;;;;;;;19.77;8.40;;;;;;;16.20;64.37;102571.72;5034359;28;20053;-70
2023/05/27 09:12:27;;;;;;;22.75;7.63;;;;;;;16.37;62.07;102569.59;5034531;28;20022;-70
2023/05/27 09:14:56;;;;;;;18.33;6.82;;;;;;;16.53;61.68;102571.03;5033609;28;20033;-70
2023/05/27 09:17:25;;;;;;;19.23;8.05;;;;;;;16.52;60.63;102563.16;5034016;28;20587;-69
2023/05/27 09:19:51;;;;;;;17.40;7.75;;;;;;;16.65;62.10;102555.88;5034266;28;20017;-69
2023/05/27 09:22:22;;;;;;;20.48;7.72;;;;;;;16.76;61.61;102562.66;5033508;28;20044;-70
2023/05/27 09:24:48;;;;;;;17.33;6.65;;;;;;;16.91;58.08;102550.94;5034011;28;20080;-70
2023/05/27 09:27:14;;;;;;;19.85;7.38;;;;;;;16.95;56.96;102547.31;5034372;28;20033;-70
2023/05/27 09:29:40;;;;;;;17.02;7.18;;;;;;;17.12;58.96;102546.06;5032988;28;20148;-70
2023/05/27 09:32:07;;;;;;;15.07;7.32;;;;;;;17.02;59.16;102535.72;5034413;28;20079;-70
2023/05/27 09:34:38;;;;;;;20.30;7.93;;;;;;;17.11;59.57;102541.69;5033981;28;20021;-70
2023/05/27 09:37:04;;;;;;;20.02;7.38;;;;;;;17.26;59.28;102541.31;5033641;28;20056;-69
2023/05/27 09:39:29;;;;;;;17.85;7.43;;;;;;;17.39;56.44;102536.59;5033942;28;20465;-69
2023/05/27 09:41:56;;;;;;;19.95;7.70;;;;;;;17.46;56.70;102533.78;5033623;28;20029;-70
2023/05/27 09:44:32;;;;;;;20.42;6.90;;;;;;;17.62;56.48;102533.38;5034082;28;20068;-70
2023/05/27 09:46:59;;;;;;;14.65;7.03;;;;;;;17.75;53.42;102532.16;5033575;28;20112;-70
2023/05/27 09:49:27;;;;;;;20.35;7.28;;;;;;;17.89;54.42;102530.06;5033309;28;20021;-70
2023/05/27 09:51:53;;;;;;;16.92;5.95;;;;;;;18.04;53.58;102531.38;5031328;28;20036;-70
2023/05/27 09:54:21;;;;;;;18.67;5.88;;;;;;;18.25;52.38;102524.66;5033774;28;20120;-70
2023/05/27 09:56:48;;;;;;;18.05;6.68;;;;;;;18.45;52.38;102522.28;5032734;28;20363;-69
2023/05/27 09:59:14;;;;;;;15.45;6.20;;;;;;;18.55;52.20;102520.22;5033946;28;20031;-70
2023/05/27 10:01:40;;;;;;;13.57;6.68;;;;;;;18.64;51.99;102509.38;5033031;28;20042;-70
2023/05/27 10:04:06;;;;;;;15.70;7.00;;;;;;;18.73;52.17;102523.25;5033173;28;20124;-70
2023/05/27 10:06:32;;;;;;;14.63;6.30;;;;;;;18.80;50.77;102514.22;5033780;28;20071;-70
2023/05/27 10:08:58;;;;;;;17.48;6.65;;;;;;;18.80;49.98;102509.81;5033279;28;20033;-70
2023/05/27 10:11:26;;;;;;;21.13;7.10;;;;;;;18.75;50.23;102513.50;5032963;28;20423;-70
2023/05/27 10:13:52;;;;;;;16.58;6.97;;;;;;;18.73;51.92;102508.25;5033113;28;20025;-70
2023/05/27 10:16:21;;;;;;;16.67;6.20;;;;;;;18.48;52.48;102501.06;5033304;28;20116;-70
2023/05/27 10:18:52;;;;;;;22.50;6.38;;;;;;;18.32;51.73;102497.16;5032179;28;20021;-70
2023/05/27 10:21:22;;;;;;;19.27;6.47;;;;;;;18.19;50.68;102495.78;5033115;28;20493;-70
2023/05/27 10:23:57;;;;;;;14.68;5.88;;;;;;;18.23;51.63;102494.78;5032600;28;20091;-70
2023/05/27 10:26:43;;;;;;;16.33;6.30;;;;;;;18.28;52.98;102494.63;5032511;28;20053;-70
2023/05/27 10:29:11;;;;;;;16.52;6.10;;;;;;;18.43;50.85;102495.03;5033127;28;20084;-70
2023/05/27 10:31:44;;;;;;;19.25;6.22;;;;;;;18.60;50.69;102489.25;5032293;28;20120;-70
2023/05/27 10:34:10;;;;;;;18.95;5.97;;;;;;;18.78;49.77;102494.91;5032942;28;20032;-70
2023/05/27 10:36:36;;;;;;;15.63;6.25;;;;;;;18.99;50.28;102477.50;5031010;28;20025;-70
2023/05/27 10:39:11;;;;;;;19.77;6.97;;;;;;;19.19;48.20;102477.69;5032186;28;20032;-70
2023/05/27 10:41:42;;;;;;;16.58;6.00;;;;;;;19.38;50.00;102475.28;5032853;28;20037;-70
2023/05/27 10:44:07;;;;;;;14.30;6.45;;;;;;;19.62;49.65;102468.28;5032380;28;20036;-70
2023/05/27 10:46:43;;;;;;;19.35;6.50;;;;;;;19.97;48.64;102466.16;5031610;28;20017;-70
2023/05/27 10:49:22;;;;;;;17.73;7.00;;;;;;;20.23;48.87;102465.19;5032531;28;20037;-70
2023/05/27 10:51:48;;;;;;;13.90;5.68;;;;;;;20.42;46.74;102462.69;5032444;28;20040;-70
2023/05/27 10:54:15;;;;;;;14.30;6.25;;;;;;;20.58;47.30;102464.69;5031916;28;20026;-70
2023/05/27 10:56:50;;;;;;;13.45;6.15;;;;;;;20.66;46.92;102459.09;5032353;28;20034;-70
2023/05/27 10:59:37;;;;;;;18.15;6.57;;;;;;;20.75;47.44;102450.75;5032492;28;20393;-70
2023/05/27 11:02:05;;;;;;;19.38;6.57;;;;;;;20.96;46.07;102442.84;5030255;28;20029;-70
2023/05/27 11:04:36;;;;;;;17.05;6.65;;;;;;;21.04;44.29;102451.34;5032453;28;20462;-70
2023/05/27 11:07:03;;;;;;;17.98;6.63;;;;;;;21.08;43.88;102449.44;5031179;28;20148;-70
2023/05/27 11:09:28;;;;;;;16.50;6.35;;;;;;;21.08;43.48;102436.19;5032673;28;20048;-70
2023/05/27 11:12:02;;;;;;;20.30;6.70;;;;;;;21.10;43.18;102432.53;5032084;28;20473;-70
2023/05/27 11:14:28;;;;;;;17.35;6.63;;;;;;;21.07;43.44;102432.66;5031867;28;20056;-70
2023/05/27 11:16:53;;;;;;;18.38;5.90;;;;;;;21.32;44.67;102423.63;5031846;28;20495;-70